createdAt,value
2023-04-20T00:00:11.786Z,6.80
2023-04-20T00:02:43.247Z,7.50
2023-04-20T00:05:12.954Z,7.00
2023-04-20T00:07:41.805Z,7.40
2023-04-20T00:10:10.319Z,7.70
2023-04-20T00:12:39.074Z,7.30
2023-04-20T00:15:07.776Z,7.40
2023-04-20T00:17:38.767Z,7.20
2023-04-20T00:20:09.271Z,7.10
2023-04-20T00:22:38.739Z,7.00
2023-04-20T00:25:07.411Z,7.20
2023-04-20T00:27:36.321Z,7.40
2023-04-20T00:30:04.815Z,7.10
2023-04-20T00:32:33.912Z,7.60
2023-04-20T00:35:02.340Z,7.10
2023-04-20T00:37:31.229Z,7.10
2023-04-20T00:39:59.590Z,7.50
2023-04-20T00:42:27.772Z,6.70
2023-04-20T00:44:56.016Z,6.30
2023-04-20T00:47:24.344Z,6.60
2023-04-20T00:49:53.357Z,6.90
2023-04-20T00:52:21.705Z,7.60
2023-04-20T00:54:50.035Z,9.50
2023-04-20T00:57:19.927Z,9.10
2023-04-20T00:59:48.231Z,9.20
2023-04-20T01:02:16.666Z,9.50
2023-04-20T01:04:47.122Z,9.10
2023-04-20T01:07:16.298Z,10.20
2023-04-20T01:09:44.628Z,10.30
2023-04-20T01:12:12.977Z,10.00
2023-04-20T01:14:41.395Z,10.10
2023-04-20T01:17:09.836Z,11.00
2023-04-20T01:19:38.080Z,10.50
2023-04-20T01:22:06.294Z,10.50
2023-04-20T01:24:34.966Z,10.50
2023-04-20T01:27:03.247Z,11.00
2023-04-20T01:29:31.996Z,11.50
2023-04-20T01:32:00.392Z,11.50
2023-04-20T01:34:28.721Z,11.70
2023-04-20T01:36:56.984Z,12.20
2023-04-20T01:39:25.254Z,11.60
2023-04-20T01:41:56.859Z,12.30
2023-04-20T01:44:26.238Z,11.70
2023-04-20T01:46:55.138Z,12.40
2023-04-20T01:49:23.369Z,12.50
2023-04-20T01:51:53.507Z,12.20
2023-04-20T01:54:23.135Z,11.70
2023-04-20T01:56:51.300Z,13.00
2023-04-20T01:59:19.866Z,12.70
2023-04-20T02:01:48.360Z,13.00
2023-04-20T02:04:16.715Z,13.20
2023-04-20T02:06:45.125Z,13.00
2023-04-20T02:09:13.376Z,13.40
2023-04-20T02:11:41.746Z,13.20
2023-04-20T02:14:10.031Z,14.30
2023-04-20T02:16:38.375Z,13.00
2023-04-20T02:19:07.042Z,13.10
2023-04-20T02:21:36.051Z,13.50
2023-04-20T02:24:04.974Z,13.50
2023-04-20T02:26:34.417Z,13.60
2023-04-20T02:29:02.679Z,13.60
2023-04-20T02:31:31.216Z,13.90
2023-04-20T02:33:59.674Z,14.30
2023-04-20T02:36:29.536Z,14.70
2023-04-20T02:38:57.854Z,15.70
2023-04-20T02:41:26.072Z,15.40
2023-04-20T02:43:54.309Z,15.90
2023-04-20T02:46:23.044Z,15.10
2023-04-20T02:48:51.405Z,15.30
2023-04-20T02:51:19.962Z,15.10
2023-04-20T02:53:48.126Z,15.20
2023-04-20T02:56:30.319Z,14.70
2023-04-20T02:59:02.665Z,13.80
2023-04-20T03:01:49.381Z,12.70
2023-04-20T03:04:22.400Z,12.10
2023-04-20T03:07:15.347Z,12.90
2023-04-20T03:09:45.013Z,11.60
2023-04-20T03:12:26.871Z,11.60
2023-04-20T03:15:13.840Z,12.20
2023-04-20T03:17:56.604Z,11.00
2023-04-20T03:20:25.528Z,12.10
2023-04-20T03:22:54.455Z,12.20
2023-04-20T03:25:24.630Z,12.50
2023-04-20T03:27:56.241Z,12.70
2023-04-20T03:30:24.537Z,13.60
2023-04-20T03:33:01.111Z,13.50
2023-04-20T03:35:30.215Z,14.70
2023-04-20T03:37:58.403Z,14.20
2023-04-20T03:40:26.767Z,15.20
2023-04-20T03:42:55.071Z,16.30
2023-04-20T03:45:23.367Z,14.90
2023-04-20T03:47:51.650Z,15.50
2023-04-20T03:50:19.900Z,14.70
2023-04-20T03:52:48.436Z,14.90
2023-04-20T03:55:16.917Z,14.20
2023-04-20T03:57:49.192Z,15.00
2023-04-20T04:00:17.660Z,15.50
2023-04-20T04:02:48.773Z,19.20
2023-04-20T04:08:14.825Z,20.50
2023-04-20T04:10:43.194Z,19.70
2023-04-20T04:15:59.350Z,21.10
2023-04-20T04:18:32.709Z,22.60
2023-04-20T04:21:04.987Z,22.10
2023-04-20T04:23:35.864Z,21.30
2023-04-20T04:26:25.047Z,21.00
2023-04-20T04:28:53.979Z,21.50
2023-04-20T04:31:23.846Z,21.40
2023-04-20T04:33:52.676Z,22.70
2023-04-20T04:36:33.547Z,21.20
2023-04-20T04:39:02.594Z,22.00
2023-04-20T04:41:31.311Z,21.80
2023-04-20T04:44:09.071Z,20.10
2023-04-20T04:46:37.413Z,21.50
2023-04-20T04:49:06.037Z,20.70
2023-04-20T04:51:34.343Z,20.30
2023-04-20T04:54:02.650Z,21.00
2023-04-20T04:56:31.513Z,20.30
2023-04-20T04:59:00.151Z,19.00
2023-04-20T05:01:28.450Z,17.90
2023-04-20T05:03:56.859Z,17.10
2023-04-20T05:06:25.755Z,16.60
2023-04-20T05:08:53.972Z,16.90
2023-04-20T05:11:22.320Z,16.60
2023-04-20T05:13:51.133Z,16.20
2023-04-20T05:16:19.355Z,14.10
2023-04-20T05:18:47.734Z,14.80
2023-04-20T05:21:16.066Z,15.00
2023-04-20T05:23:44.424Z,13.50
2023-04-20T05:26:12.743Z,13.40
2023-04-20T05:28:41.084Z,12.20
2023-04-20T05:31:09.683Z,11.60
2023-04-20T05:33:37.955Z,11.30
2023-04-20T05:36:09.312Z,10.50
2023-04-20T05:41:14.794Z,10.10
2023-04-20T05:43:43.139Z,9.10
2023-04-20T05:46:11.594Z,9.70
2023-04-20T05:48:39.948Z,9.70
2023-04-20T05:51:08.353Z,8.70
2023-04-20T05:53:37.067Z,8.70
2023-04-20T05:56:06.462Z,8.10
2023-04-20T05:58:34.871Z,7.40
2023-04-20T06:01:04.446Z,6.90
2023-04-20T06:03:33.632Z,6.40
2023-04-20T06:06:02.012Z,5.50
2023-04-20T06:08:30.388Z,4.40
2023-04-20T06:10:58.873Z,3.90
2023-04-20T06:13:27.213Z,4.30
2023-04-20T06:15:55.583Z,3.70
2023-04-20T06:18:24.571Z,4.00
2023-04-20T06:20:52.979Z,3.90
2023-04-20T06:23:21.481Z,4.80
2023-04-20T06:25:49.862Z,4.50
2023-04-20T06:28:18.376Z,4.60
2023-04-20T06:30:47.095Z,4.20
2023-04-20T06:33:17.574Z,4.80
2023-04-20T06:35:45.833Z,5.00
2023-04-20T06:38:14.123Z,6.50
2023-04-20T06:40:42.354Z,5.80
2023-04-20T06:43:10.591Z,5.80
2023-04-20T06:45:38.803Z,6.50
2023-04-20T06:48:14.400Z,6.10
2023-04-20T06:50:52.198Z,6.00
2023-04-20T06:53:20.437Z,5.80
2023-04-20T06:55:48.595Z,5.80
2023-04-20T06:58:16.993Z,5.80
2023-04-20T07:00:45.993Z,6.30
2023-04-20T07:03:14.451Z,5.60
2023-04-20T07:05:42.956Z,6.60
2023-04-20T07:08:11.298Z,5.40
2023-04-20T07:10:39.786Z,5.40
2023-04-20T07:13:08.032Z,6.30
2023-04-20T07:15:36.407Z,5.60
2023-04-20T07:18:04.674Z,5.40
2023-04-20T07:20:33.116Z,5.50
2023-04-20T07:23:01.319Z,6.20
2023-04-20T07:25:31.713Z,6.40
2023-04-20T07:27:59.900Z,5.90
2023-04-20T07:30:28.198Z,6.30
2023-04-20T07:32:56.756Z,5.80
2023-04-20T07:35:25.077Z,6.20
2023-04-20T07:37:53.417Z,13.70
2023-04-20T07:40:21.863Z,6.50
2023-04-20T07:42:50.443Z,5.90
2023-04-20T07:45:19.111Z,5.60
2023-04-20T07:47:51.653Z,6.30
2023-04-20T07:50:20.154Z,5.60
2023-04-20T07:52:48.718Z,6.60
2023-04-20T07:55:17.589Z,7.10
2023-04-20T07:57:46.086Z,5.00
2023-04-20T08:00:15.390Z,5.40
2023-04-20T08:02:46.610Z,5.20
2023-04-20T08:05:15.364Z,5.50
2023-04-20T08:07:44.375Z,5.70
2023-04-20T08:10:12.861Z,5.00
2023-04-20T08:12:41.749Z,4.70
2023-04-20T08:15:11.079Z,4.20
2023-04-20T08:17:40.025Z,5.10
2023-04-20T08:20:08.499Z,5.50
2023-04-20T08:22:38.056Z,14.30
2023-04-20T08:25:06.614Z,8.70
2023-04-20T08:27:35.371Z,10.20
2023-04-20T08:30:06.970Z,6.70
2023-04-20T08:32:35.650Z,6.30
2023-04-20T08:35:05.272Z,8.10
2023-04-20T08:37:34.638Z,5.80
2023-04-20T08:40:03.936Z,5.80
2023-04-20T08:42:33.093Z,6.30
2023-04-20T08:45:01.374Z,5.00
2023-04-20T08:47:29.952Z,4.90
2023-04-20T08:49:58.769Z,5.30
2023-04-20T08:52:27.566Z,5.40
2023-04-20T08:54:57.315Z,5.00
2023-04-20T08:57:26.622Z,5.00
2023-04-20T08:59:55.110Z,5.50
2023-04-20T09:02:23.506Z,5.80
2023-04-20T09:05:02.631Z,6.00
2023-04-20T09:07:32.328Z,5.70
2023-04-20T09:10:01.139Z,8.90
2023-04-20T09:12:42.976Z,10.40
2023-04-20T09:15:11.623Z,13.60
2023-04-20T09:17:41.506Z,16.00
2023-04-20T09:20:11.621Z,18.60
2023-04-20T09:22:41.063Z,20.20
2023-04-20T09:25:16.239Z,21.80
2023-04-20T09:27:55.564Z,20.80
2023-04-20T09:30:23.958Z,19.40
2023-04-20T09:33:02.805Z,19.50
2023-04-20T09:35:31.579Z,19.60
2023-04-20T09:38:00.016Z,17.60
2023-04-20T09:40:28.575Z,12.40
2023-04-20T09:42:59.396Z,5.30
2023-04-20T09:45:27.728Z,3.70
2023-04-20T09:47:56.394Z,17.20
2023-04-20T09:50:32.054Z,4.50
2023-04-20T09:53:06.921Z,5.20
2023-04-20T09:55:36.119Z,3.70
2023-04-20T09:58:05.105Z,3.80
2023-04-20T10:00:34.030Z,3.70
2023-04-20T10:03:02.459Z,3.30
2023-04-20T10:05:35.964Z,4.60
2023-04-20T10:08:04.300Z,7.10
2023-04-20T10:10:49.822Z,4.00
2023-04-20T10:13:20.765Z,3.20
2023-04-20T10:15:49.265Z,3.40
2023-04-20T10:18:24.059Z,3.60
2023-04-20T10:20:52.973Z,3.00
2023-04-20T10:23:21.542Z,2.90
2023-04-20T10:25:57.999Z,2.70
2023-04-20T10:28:27.104Z,3.20
2023-04-20T10:30:55.423Z,3.80
2023-04-20T10:33:24.154Z,3.90
2023-04-20T10:35:55.315Z,4.00
2023-04-20T10:38:34.619Z,4.20
2023-04-20T10:41:06.880Z,4.20
2023-04-20T10:43:36.275Z,4.40
2023-04-20T10:46:20.172Z,4.30
2023-04-20T10:48:58.598Z,8.20
2023-04-20T10:51:26.834Z,8.30
2023-04-20T10:54:01.958Z,7.00
2023-04-20T10:56:43.259Z,9.30
2023-04-20T10:59:16.782Z,9.50
2023-04-20T11:01:45.672Z,5.70
2023-04-20T11:04:16.179Z,6.30
2023-04-20T11:06:47.244Z,5.80
2023-04-20T11:09:28.666Z,6.40
2023-04-20T11:12:14.900Z,6.80
2023-04-20T11:14:54.332Z,7.10
2023-04-20T11:17:38.448Z,6.90
2023-04-20T11:20:12.349Z,7.40
2023-04-20T11:22:41.662Z,6.60
2023-04-20T11:25:11.630Z,6.90
2023-04-20T11:27:40.197Z,7.30
2023-04-20T11:30:10.163Z,7.60
2023-04-20T11:32:39.479Z,7.70
2023-04-20T11:35:09.617Z,9.60
2023-04-20T11:37:51.700Z,10.20
2023-04-20T11:40:20.426Z,9.30
2023-04-20T11:42:49.065Z,8.40
2023-04-20T11:45:18.149Z,6.60
2023-04-20T11:47:47.579Z,6.00
2023-04-20T11:50:16.259Z,5.30
2023-04-20T11:52:44.560Z,5.70
2023-04-20T11:55:12.903Z,5.70
2023-04-20T11:57:41.181Z,5.30
2023-04-20T12:00:10.155Z,5.30
2023-04-20T12:02:44.279Z,5.60
2023-04-20T12:05:12.955Z,5.30
2023-04-20T12:07:42.130Z,5.20
2023-04-20T12:10:12.163Z,5.80
2023-04-20T12:12:42.477Z,22.20
2023-04-20T12:15:10.994Z,10.60
2023-04-20T12:17:39.621Z,6.50
2023-04-20T12:20:11.569Z,6.50
2023-04-20T12:22:40.165Z,7.10
2023-04-20T12:25:08.653Z,8.50
2023-04-20T12:27:37.790Z,8.40
2023-04-20T12:30:07.054Z,7.50
2023-04-20T12:32:35.729Z,6.50
2023-04-20T12:35:04.133Z,7.30
2023-04-20T12:37:32.602Z,8.50
2023-04-20T12:40:00.940Z,9.60
2023-04-20T12:42:29.383Z,12.50
2023-04-20T12:44:57.587Z,18.50
2023-04-20T12:47:25.932Z,21.80
2023-04-20T12:49:55.290Z,14.60
2023-04-20T12:52:23.535Z,12.30
2023-04-20T12:54:51.708Z,10.50
2023-04-20T12:57:20.461Z,11.80
2023-04-20T12:59:51.625Z,11.80
2023-04-20T13:02:19.976Z,11.00
2023-04-20T13:04:48.301Z,10.00
2023-04-20T13:07:16.847Z,10.00
2023-04-20T13:09:45.189Z,9.60
2023-04-20T13:12:13.576Z,8.90
2023-04-20T13:14:42.057Z,10.40
2023-04-20T13:17:10.266Z,13.30
2023-04-20T13:19:38.427Z,17.20
2023-04-20T13:22:06.780Z,16.50
2023-04-20T13:24:35.369Z,15.20
2023-04-20T13:27:03.716Z,15.70
2023-04-20T13:29:33.006Z,16.30
2023-04-20T13:32:01.425Z,14.70
2023-04-20T13:34:31.086Z,15.60
2023-04-20T13:36:59.263Z,15.60
2023-04-20T13:39:28.045Z,15.60
2023-04-20T13:41:57.013Z,15.40
2023-04-20T13:44:25.503Z,13.90
2023-04-20T13:46:53.976Z,13.70
2023-04-20T13:49:22.981Z,12.00
2023-04-20T13:51:51.530Z,11.80
2023-04-20T13:54:19.901Z,9.10
2023-04-20T13:56:48.450Z,11.30
2023-04-20T13:59:16.781Z,9.50
2023-04-20T14:01:45.210Z,9.90
2023-04-20T14:04:17.072Z,10.30
2023-04-20T14:06:46.289Z,10.10
2023-04-20T14:09:14.666Z,12.20
2023-04-20T14:11:43.968Z,11.80
2023-04-20T14:14:12.289Z,13.90
2023-04-20T14:16:48.259Z,16.00
2023-04-20T14:19:16.636Z,15.10
2023-04-20T14:21:46.763Z,17.40
2023-04-20T14:24:15.123Z,15.50
2023-04-20T14:26:44.101Z,17.80
2023-04-20T14:29:13.025Z,14.70
2023-04-20T14:31:41.498Z,14.90
2023-04-20T14:34:09.835Z,12.30
2023-04-20T14:36:38.131Z,12.30
2023-04-20T14:39:06.356Z,12.30
2023-04-20T14:41:35.324Z,11.30
2023-04-20T14:44:04.302Z,9.90
2023-04-20T14:46:33.152Z,10.20
2023-04-20T14:49:01.495Z,8.90
2023-04-20T14:51:30.032Z,9.30
2023-04-20T14:53:58.602Z,9.70
2023-04-20T14:56:27.084Z,11.10
2023-04-20T14:58:57.430Z,10.20
2023-04-20T15:01:25.973Z,10.40
2023-04-20T15:03:54.602Z,10.10
2023-04-20T15:06:23.247Z,10.50
2023-04-20T15:08:54.834Z,10.20
2023-04-20T15:11:23.226Z,10.20
2023-04-20T15:13:52.779Z,9.40
2023-04-20T15:16:21.150Z,10.30
2023-04-20T15:18:52.074Z,11.10
2023-04-20T15:21:23.665Z,11.20
2023-04-20T15:23:51.943Z,11.80
2023-04-20T15:26:20.173Z,12.70
2023-04-20T15:28:50.104Z,13.00
2023-04-20T15:31:21.062Z,14.80
2023-04-20T15:33:49.446Z,13.60
2023-04-20T15:36:18.271Z,13.30
2023-04-20T15:38:47.178Z,14.60
2023-04-20T15:41:16.571Z,12.70
2023-04-20T15:43:44.936Z,12.20
2023-04-20T15:46:13.203Z,11.70
2023-04-20T15:48:41.537Z,12.90
2023-04-20T15:51:09.731Z,13.60
2023-04-20T15:53:38.430Z,12.50
2023-04-20T15:56:07.101Z,12.10
2023-04-20T15:58:37.269Z,11.70
2023-04-20T16:08:44.289Z,8.90
2023-04-20T16:11:12.540Z,8.70
2023-04-20T16:13:40.842Z,8.10
2023-04-20T16:16:09.137Z,7.20
2023-04-20T16:18:37.422Z,6.80
2023-04-20T16:21:05.719Z,7.20
2023-04-20T16:23:33.997Z,6.70
2023-04-20T16:26:02.293Z,7.50
2023-04-20T16:28:31.076Z,6.70
2023-04-20T16:31:00.302Z,7.40
2023-04-20T16:33:30.662Z,6.80
2023-04-20T16:35:59.596Z,7.20
2023-04-20T16:38:27.846Z,7.30
2023-04-20T16:40:56.178Z,7.30
2023-04-20T16:43:24.564Z,7.60
2023-04-20T16:45:52.949Z,7.90
2023-04-20T16:48:21.776Z,7.80
2023-04-20T16:50:49.996Z,8.30
2023-04-20T16:53:18.178Z,8.50
2023-04-20T16:55:46.520Z,8.70
2023-04-20T16:58:14.798Z,9.50
2023-04-20T17:00:43.578Z,10.60
2023-04-20T17:03:13.732Z,10.50
2023-04-20T17:05:42.823Z,11.50
2023-04-20T17:08:11.507Z,18.20
2023-04-20T17:10:40.315Z,18.40
2023-04-20T17:13:08.581Z,20.30
2023-04-20T17:15:37.274Z,21.40
2023-04-20T17:18:07.113Z,18.70
2023-04-20T17:20:35.777Z,19.00
2023-04-20T17:23:04.257Z,20.20
2023-04-20T17:25:33.439Z,19.70
2023-04-20T17:28:02.961Z,20.50
2023-04-20T17:30:31.770Z,18.90
2023-04-20T17:33:01.984Z,19.60
2023-04-20T17:35:30.854Z,21.90
2023-04-20T17:38:00.104Z,21.40
2023-04-20T17:40:28.470Z,20.40
2023-04-20T17:42:56.709Z,20.00
2023-04-20T17:45:24.949Z,20.50
2023-04-20T17:47:53.886Z,21.30
2023-04-20T17:50:23.343Z,19.50
2023-04-20T17:52:51.900Z,19.00
2023-04-20T17:55:20.469Z,19.00
2023-04-20T17:59:00.422Z,18.20
2023-04-20T18:01:29.011Z,18.20
2023-04-20T18:03:57.601Z,18.10
2023-04-20T18:06:26.450Z,18.80
2023-04-20T18:08:56.540Z,18.40
2023-04-20T18:11:25.107Z,20.80
2023-04-20T18:13:55.103Z,19.80
2023-04-20T18:16:23.552Z,21.80
2023-04-20T18:18:52.919Z,21.30
2023-04-20T18:21:21.747Z,21.10
2023-04-20T18:23:50.303Z,21.10
2023-04-20T18:26:18.796Z,20.60
2023-04-20T18:28:47.594Z,22.30
2023-04-20T18:31:16.065Z,21.90
2023-04-20T18:33:44.372Z,21.80
2023-04-20T18:36:12.781Z,21.20
2023-04-20T18:38:41.635Z,19.50
2023-04-20T18:41:10.442Z,19.90
2023-04-20T18:43:39.551Z,19.60
2023-04-20T18:46:08.850Z,19.50
2023-04-20T18:48:37.308Z,18.30
2023-04-20T18:51:06.362Z,15.80
2023-04-20T18:53:35.130Z,16.20
2023-04-20T18:56:03.712Z,17.20
2023-04-20T18:58:32.138Z,17.30
2023-04-20T19:01:03.676Z,18.10
2023-04-20T19:03:32.429Z,19.20
2023-04-20T19:06:01.111Z,21.40
2023-04-20T19:08:29.645Z,20.90
2023-04-20T19:10:59.232Z,20.10
2023-04-20T19:13:28.272Z,19.70
2023-04-20T19:15:59.408Z,17.90
2023-04-20T19:18:28.070Z,17.70
2023-04-20T19:20:56.356Z,18.10
2023-04-20T19:23:24.643Z,17.00
2023-04-20T19:25:53.021Z,17.70
2023-04-20T19:28:23.471Z,19.30
2023-04-20T19:30:53.142Z,22.30
2023-04-20T19:33:21.447Z,22.10
2023-04-20T19:35:51.161Z,22.10
2023-04-20T19:38:20.324Z,21.90
2023-04-20T19:40:49.432Z,19.90
2023-04-20T19:43:19.868Z,19.20
2023-04-20T19:45:48.166Z,17.90
2023-04-20T19:48:16.573Z,17.00
2023-04-20T19:50:44.769Z,16.90
2023-04-20T19:53:13.194Z,17.10
2023-04-20T19:55:41.503Z,17.90
2023-04-20T19:58:11.089Z,16.60
2023-04-20T20:00:39.344Z,17.00
2023-04-20T20:03:10.343Z,17.60
2023-04-20T20:05:38.902Z,19.20
2023-04-20T20:08:07.091Z,17.10
2023-04-20T20:10:35.955Z,18.70
2023-04-20T20:13:04.270Z,18.50
2023-04-20T20:15:32.597Z,18.10
2023-04-20T20:18:01.036Z,18.10
2023-04-20T20:20:32.569Z,18.90
2023-04-20T20:23:00.845Z,20.40
2023-04-20T20:25:29.466Z,20.70
2023-04-20T20:27:57.866Z,19.30
2023-04-20T20:30:26.189Z,20.40
2023-04-20T20:32:54.667Z,20.80
2023-04-20T20:35:22.932Z,19.80
2023-04-20T20:37:51.128Z,22.20
2023-04-20T20:40:19.512Z,22.10
2023-04-20T20:42:48.179Z,21.70
2023-04-20T20:45:16.535Z,21.50
2023-04-20T20:47:45.390Z,19.50
2023-04-20T20:50:14.687Z,19.90
2023-04-20T20:52:42.963Z,19.90
2023-04-20T20:55:11.383Z,20.30
2023-04-20T20:57:39.893Z,19.20
2023-04-20T21:00:12.495Z,20.40
2023-04-20T21:02:42.429Z,19.90
2023-04-20T21:05:11.092Z,20.00
2023-04-20T21:07:39.483Z,19.50
2023-04-20T21:10:08.034Z,18.50
2023-04-20T21:12:36.876Z,18.80
2023-04-20T21:15:05.640Z,18.70
2023-04-20T21:17:34.316Z,18.60
2023-04-20T21:20:05.856Z,19.30
2023-04-20T21:22:34.897Z,19.10
2023-04-20T21:25:03.928Z,20.30
2023-04-20T21:27:32.838Z,19.70
2023-04-20T21:30:01.062Z,20.00
2023-04-20T21:32:29.398Z,21.00
2023-04-20T21:34:57.587Z,21.70
2023-04-20T21:37:25.969Z,22.70
2023-04-20T21:39:54.234Z,23.70
2023-04-20T21:42:22.556Z,24.30
2023-04-20T21:44:50.856Z,24.20
2023-04-20T21:47:19.144Z,25.80
2023-04-20T21:49:47.385Z,25.30
2023-04-20T21:52:15.822Z,25.90
2023-04-20T21:54:44.045Z,24.60
2023-04-20T21:57:12.321Z,25.30
2023-04-20T21:59:40.649Z,23.20
2023-04-20T22:02:09.187Z,23.10
2023-04-20T22:04:37.657Z,23.40
2023-04-20T22:07:06.152Z,22.10
2023-04-20T22:09:34.410Z,21.50
2023-04-20T22:12:03.448Z,20.50
2023-04-20T22:14:31.941Z,20.90
2023-04-20T22:17:02.090Z,19.40
2023-04-20T22:19:30.433Z,18.80
2023-04-20T22:21:58.680Z,19.30
2023-04-20T22:24:26.909Z,19.70
2023-04-20T22:26:55.117Z,19.20
2023-04-20T22:29:23.587Z,18.00
2023-04-20T22:31:51.850Z,17.80
2023-04-20T22:34:20.103Z,18.50
2023-04-20T22:36:48.315Z,19.40
2023-04-20T22:39:16.705Z,19.50
2023-04-20T22:41:45.217Z,19.60
2023-04-20T22:44:13.507Z,19.70
2023-04-20T22:46:41.793Z,18.90
2023-04-20T22:49:10.348Z,18.50
2023-04-20T22:51:38.612Z,18.80
2023-04-20T22:54:06.844Z,18.30
2023-04-20T22:56:35.494Z,19.10
2023-04-20T22:59:03.786Z,19.00
2023-04-20T23:01:33.073Z,19.20
2023-04-20T23:04:01.593Z,18.20
2023-04-20T23:06:31.782Z,18.70
2023-04-20T23:09:00.678Z,18.30
2023-04-20T23:11:29.474Z,18.00
2023-04-20T23:13:57.750Z,17.90
2023-04-20T23:16:28.224Z,19.20
2023-04-20T23:18:56.459Z,18.30
2023-04-20T23:21:24.682Z,18.40
2023-04-20T23:23:53.111Z,19.30
2023-04-20T23:26:21.498Z,20.00
2023-04-20T23:28:53.289Z,20.30
2023-04-20T23:31:21.601Z,22.30
2023-04-20T23:33:49.979Z,21.40
2023-04-20T23:36:18.233Z,20.50
2023-04-20T23:38:46.472Z,20.10
2023-04-20T23:41:15.215Z,21.50
2023-04-20T23:43:43.490Z,21.50
2023-04-20T23:46:12.870Z,22.00
2023-04-20T23:48:41.364Z,22.30
2023-04-20T23:51:09.562Z,22.40
2023-04-20T23:53:39.315Z,21.60
2023-04-20T23:56:07.942Z,23.20
2023-04-20T23:58:37.215Z,22.90
